Time;durP1;ratioP1;P1;durP2;ratioP2;P2;SDS_P1;SDS_P2;PMS_P1;PMS_P2;Temp;Humidity;BMP_temperature;BMP_pressure;BME280_temperature;BME280_humidity;BME280_pressure;Samples;Min_cycle;Max_cycle;Signal;HPM_P1;HPM_P2
2022/06/25 00:01:11;;;;;;;1.30;0.80;;;19.30;80.40;;;;;;5031851;28;20045;-76
2022/06/25 00:03:39;;;;;;;1.33;0.70;;;19.30;80.50;;;;;;5040878;28;20040;-76
2022/06/25 00:06:06;;;;;;;2.08;0.70;;;19.30;80.70;;;;;;5021233;28;20041;-76
2022/06/25 00:08:35;;;;;;;1.50;0.68;;;19.30;80.80;;;;;;5034180;28;20420;-76
2022/06/25 00:11:03;;;;;;;1.23;0.68;;;19.30;80.90;;;;;;5049571;28;20048;-76
2022/06/25 00:13:30;;;;;;;1.40;0.80;;;19.30;80.90;;;;;;5054034;28;20485;-76
2022/06/25 00:15:58;;;;;;;1.05;0.65;;;19.20;80.90;;;;;;5073824;28;20070;-76
2022/06/25 00:18:26;;;;;;;1.45;0.70;;;19.20;81.00;;;;;;5070502;28;20087;-76
2022/06/25 00:20:53;;;;;;;2.03;0.77;;;19.20;81.10;;;;;;5069011;28;20447;-76
2022/06/25 00:23:20;;;;;;;1.45;0.88;;;19.20;81.10;;;;;;5048039;28;20542;-76
2022/06/25 00:25:47;;;;;;;2.05;0.70;;;19.20;81.20;;;;;;5007664;28;20071;-76
2022/06/25 00:28:14;;;;;;;1.15;0.77;;;19.10;81.20;;;;;;5035060;28;20049;-76
2022/06/25 00:30:41;;;;;;;1.23;0.60;;;19.10;81.30;;;;;;5057114;28;20106;-76
2022/06/25 00:33:08;;;;;;;1.02;0.57;;;19.10;81.40;;;;;;5035079;28;20431;-76
2022/06/25 00:35:35;;;;;;;1.00;0.60;;;19.10;81.40;;;;;;5040612;28;20040;-76
2022/06/25 00:38:02;;;;;;;1.23;0.70;;;19.00;81.40;;;;;;5055729;28;20041;-76
2022/06/25 00:40:30;;;;;;;3.38;0.90;;;19.00;81.50;;;;;;5032022;28;20045;-77
2022/06/25 00:42:57;;;;;;;2.78;0.77;;;19.10;81.50;;;;;;5048359;28;20056;-76
2022/06/25 00:45:24;;;;;;;1.00;0.57;;;19.10;81.50;;;;;;5035800;28;20097;-77
2022/06/25 00:47:51;;;;;;;1.48;0.68;;;19.10;81.50;;;;;;5029904;28;20101;-77
2022/06/25 00:50:18;;;;;;;1.90;0.70;;;19.10;81.60;;;;;;5041038;28;20084;-76
2022/06/25 00:52:52;;;;;;;3.25;0.88;;;19.10;81.60;;;;;;5061837;28;20106;-76
2022/06/25 00:55:22;;;;;;;1.35;0.70;;;19.00;81.50;;;;;;5057787;28;20033;-77
2022/06/25 00:57:51;;;;;;;1.48;0.68;;;19.10;81.60;;;;;;5023919;28;20044;-76
2022/06/25 01:00:18;;;;;;;1.70;0.70;;;19.10;81.60;;;;;;5058814;28;20045;-76
2022/06/25 01:02:46;;;;;;;1.25;0.80;;;19.10;81.60;;;;;;5031264;28;20051;-76
2022/06/25 01:05:15;;;;;;;1.60;0.60;;;19.10;81.60;;;;;;5066787;28;20055;-77
2022/06/25 01:07:45;;;;;;;1.58;0.77;;;19.10;81.70;;;;;;5072914;28;20101;-76
2022/06/25 01:10:13;;;;;;;2.60;0.75;;;19.10;82.30;;;;;;5049536;28;20048;-77
2022/06/25 01:12:41;;;;;;;1.63;0.77;;;19.00;81.60;;;;;;5065626;28;20564;-76
2022/06/25 01:15:16;;;;;;;1.77;0.50;;;19.00;81.70;;;;;;5050079;28;20055;-76
2022/06/25 01:17:45;;;;;;;1.13;0.70;;;19.10;81.80;;;;;;5024604;28;20041;-76
2022/06/25 01:20:13;;;;;;;1.15;0.50;;;19.10;81.80;;;;;;5045986;28;20041;-76
2022/06/25 01:22:41;;;;;;;1.40;0.60;;;19.00;81.80;;;;;;5066527;28;20444;-76
2022/06/25 01:25:09;;;;;;;0.82;0.50;;;19.00;81.80;;;;;;5031673;28;20463;-76
2022/06/25 01:27:38;;;;;;;1.10;0.50;;;19.00;81.90;;;;;;5036355;28;20056;-76
2022/06/25 01:30:09;;;;;;;2.30;0.75;;;19.00;81.90;;;;;;5049369;28;20052;-77
2022/06/25 01:32:36;;;;;;;1.10;0.60;;;19.00;81.90;;;;;;5064176;28;20487;-76
2022/06/25 01:35:04;;;;;;;1.42;0.63;;;19.00;81.80;;;;;;5050014;28;20090;-76
2022/06/25 01:37:34;;;;;;;1.23;0.60;;;19.00;81.90;;;;;;5044363;28;20132;-76
2022/06/25 01:40:02;;;;;;;0.80;0.50;;;19.00;81.90;;;;;;5053754;28;20043;-76
2022/06/25 01:45:15;;;;;;;1.63;0.70;;;18.90;82.00;;;;;;5067990;28;20045;-76
2022/06/25 01:47:42;;;;;;;1.45;0.70;;;18.90;82.10;;;;;;5052237;28;20048;-76
2022/06/25 01:50:10;;;;;;;0.85;0.50;;;18.90;82.10;;;;;;5055401;28;20411;-76
2022/06/25 01:52:38;;;;;;;1.48;0.68;;;18.90;82.20;;;;;;5046989;28;20068;-76
2022/06/25 01:55:05;;;;;;;1.33;0.55;;;18.80;82.20;;;;;;5038035;28;20140;-76
2022/06/25 01:57:36;;;;;;;1.55;0.63;;;18.80;82.20;;;;;;5054095;28;20102;-76
2022/06/25 02:00:13;;;;;;;2.08;0.60;;;18.90;82.30;;;;;;5070400;28;20044;-76
2022/06/25 02:02:42;;;;;;;1.40;0.75;;;18.80;82.30;;;;;;5069749;28;20155;-77
2022/06/25 02:05:12;;;;;;;1.50;0.93;;;18.80;82.40;;;;;;5067410;28;20041;-76
2022/06/25 02:07:39;;;;;;;1.40;0.70;;;18.80;82.40;;;;;;5030921;28;20067;-76
2022/06/25 02:10:07;;;;;;;1.17;0.52;;;18.80;82.50;;;;;;5049724;28;20048;-76
2022/06/25 02:12:35;;;;;;;1.10;0.60;;;18.80;82.60;;;;;;5055051;28;20048;-76
2022/06/25 02:15:03;;;;;;;1.45;0.85;;;18.70;82.50;;;;;;5049172;28;20071;-76
2022/06/25 02:17:30;;;;;;;3.80;0.80;;;18.70;82.60;;;;;;5056061;28;20048;-76
2022/06/25 02:19:58;;;;;;;1.50;0.70;;;18.70;82.80;;;;;;5037156;28;20836;-76
2022/06/25 02:22:25;;;;;;;1.08;0.70;;;18.70;82.80;;;;;;5032217;28;20091;-76
2022/06/25 02:24:53;;;;;;;1.63;0.65;;;18.60;82.80;;;;;;5022330;28;20091;-76
2022/06/25 02:27:20;;;;;;;2.25;0.50;;;18.60;82.80;;;;;;5011294;28;20045;-76
2022/06/25 02:29:47;;;;;;;1.25;0.60;;;18.60;82.80;;;;;;5051309;28;20362;-76
2022/06/25 02:32:14;;;;;;;1.90;0.77;;;18.60;82.90;;;;;;5034766;28;20139;-76
2022/06/25 02:34:41;;;;;;;1.75;0.80;;;18.60;82.90;;;;;;5037549;28;20045;-76
2022/06/25 02:37:09;;;;;;;1.88;0.63;;;18.60;83.00;;;;;;5034812;28;20041;-76
2022/06/25 02:39:37;;;;;;;1.30;0.50;;;18.60;83.00;;;;;;5021630;28;20049;-76
2022/06/25 02:42:04;;;;;;;1.30;0.60;;;18.50;83.10;;;;;;5058235;28;20044;-76
2022/06/25 02:44:31;;;;;;;1.63;0.77;;;18.50;83.10;;;;;;5054749;28;20036;-76
2022/06/25 02:47:00;;;;;;;2.00;0.60;;;18.50;83.20;;;;;;5050911;28;20643;-76
2022/06/25 02:49:38;;;;;;;3.25;1.02;;;18.50;83.20;;;;;;5030085;28;20455;-76
2022/06/25 02:52:05;;;;;;;1.08;0.60;;;18.50;83.20;;;;;;5034607;28;20053;-76
2022/06/25 02:54:32;;;;;;;1.77;0.57;;;18.40;83.30;;;;;;5034228;28;20048;-76
2022/06/25 02:59:46;;;;;;;2.33;0.80;;;18.40;83.40;;;;;;5036812;28;20505;-76
2022/06/25 03:02:17;;;;;;;0.77;0.50;;;18.30;83.40;;;;;;5054770;28;20400;-76
2022/06/25 03:04:48;;;;;;;1.55;0.73;;;18.30;83.50;;;;;;5033591;28;20060;-76
2022/06/25 03:07:16;;;;;;;0.75;0.50;;;18.30;83.50;;;;;;5047983;28;20041;-76
2022/06/25 03:09:43;;;;;;;1.63;0.80;;;18.30;83.60;;;;;;5053534;28;20048;-76
2022/06/25 03:12:10;;;;;;;1.40;0.43;;;18.30;83.70;;;;;;5036746;28;20044;-76
2022/06/25 03:14:40;;;;;;;0.80;0.43;;;18.20;83.70;;;;;;5028252;28;20500;-76
2022/06/25 03:17:10;;;;;;;1.17;0.50;;;18.20;83.80;;;;;;5049862;28;20385;-76
2022/06/25 03:19:56;;;;;;;0.65;0.40;;;18.20;83.80;;;;;;5059925;28;20401;-76
2022/06/25 03:22:28;;;;;;;1.10;0.52;;;18.20;83.90;;;;;;5049092;28;20048;-76
2022/06/25 03:24:55;;;;;;;1.92;0.60;;;18.10;83.90;;;;;;5042818;28;20045;-76
2022/06/25 03:27:23;;;;;;;1.90;0.60;;;18.10;83.90;;;;;;5034719;28;20037;-76
2022/06/25 03:29:57;;;;;;;1.92;0.70;;;18.10;83.90;;;;;;5039105;28;20512;-76
2022/06/25 03:32:24;;;;;;;1.60;0.60;;;18.10;84.00;;;;;;5037505;28;20053;-76
2022/06/25 03:35:11;;;;;;;1.05;0.50;;;18.10;84.00;;;;;;5045557;28;20041;-76
2022/06/25 03:37:51;;;;;;;1.52;0.60;;;18.10;84.10;;;;;;5064742;28;20569;-76
2022/06/25 03:40:20;;;;;;;2.22;0.60;;;18.00;84.70;;;;;;5037430;28;20079;-76
2022/06/25 03:42:54;;;;;;;0.98;0.40;;;18.00;84.20;;;;;;5049295;28;20087;-76
2022/06/25 03:45:21;;;;;;;1.25;0.75;;;18.00;84.20;;;;;;5064203;28;20128;-76
2022/06/25 03:47:52;;;;;;;2.35;0.60;;;18.00;84.30;;;;;;5030775;28;20072;-75
2022/06/25 03:50:21;;;;;;;2.03;0.82;;;18.00;84.30;;;;;;5064345;28;20136;-80
2022/06/25 03:52:50;;;;;;;1.45;0.50;;;18.00;84.40;;;;;;5033888;28;20049;-81
2022/06/25 03:55:18;;;;;;;2.72;0.57;;;18.00;84.40;;;;;;5024649;28;20048;-81
2022/06/25 03:57:53;;;;;;;0.95;0.43;;;18.00;84.40;;;;;;5047815;28;20606;-76
2022/06/25 04:00:23;;;;;;;0.85;0.40;;;18.00;84.50;;;;;;5052029;28;20086;-76
2022/06/25 04:02:56;;;;;;;3.05;0.65;;;18.00;84.50;;;;;;5043472;28;20404;-76
2022/06/25 04:05:29;;;;;;;0.93;0.50;;;18.00;84.50;;;;;;5067877;28;20047;-76
2022/06/25 04:08:09;;;;;;;0.88;0.50;;;18.00;84.40;;;;;;5058128;28;20075;-76
2022/06/25 04:10:36;;;;;;;1.15;0.50;;;18.00;84.50;;;;;;5062258;28;20056;-76
2022/06/25 04:13:04;;;;;;;3.55;0.70;;;18.00;84.60;;;;;;5037883;28;20400;-80
2022/06/25 04:15:33;;;;;;;3.03;0.50;;;18.00;84.60;;;;;;5034407;28;20493;-81
2022/06/25 04:18:00;;;;;;;2.25;0.43;;;18.00;84.60;;;;;;5023530;28;20041;-80
2022/06/25 04:20:27;;;;;;;1.10;0.60;;;18.00;84.60;;;;;;5032560;28;20044;-81
2022/06/25 04:22:55;;;;;;;0.77;0.50;;;18.00;84.60;;;;;;5057185;28;20072;-81
2022/06/25 04:25:22;;;;;;;1.58;0.70;;;18.10;84.60;;;;;;5046384;28;20140;-81
2022/06/25 04:30:36;;;;;;;0.70;0.40;;;18.10;84.60;;;;;;5051479;28;20103;-81
2022/06/25 04:33:03;;;;;;;0.90;0.50;;;18.10;84.40;;;;;;5051197;28;20041;-81
2022/06/25 04:35:34;;;;;;;1.48;0.63;;;18.20;84.40;;;;;;5063382;28;20044;-81
2022/06/25 04:38:13;;;;;;;4.10;0.57;;;18.40;84.00;;;;;;5054998;28;20520;-81
2022/06/25 04:40:42;;;;;;;1.48;0.70;;;18.50;84.30;;;;;;5028191;28;20459;-81
2022/06/25 04:43:09;;;;;;;1.00;0.60;;;18.50;83.60;;;;;;5050705;28;20048;-76
2022/06/25 04:45:36;;;;;;;1.67;0.75;;;18.50;83.60;;;;;;5044770;28;20052;-76
2022/06/25 04:48:20;;;;;;;2.08;1.08;;;18.50;83.60;;;;;;5043201;28;20053;-75
2022/06/25 04:51:10;;;;;;;2.45;0.63;;;18.50;83.50;;;;;;5025975;28;20061;-76
2022/06/25 04:53:55;;;;;;;1.35;0.60;;;18.60;83.40;;;;;;5014537;28;20048;-76
2022/06/25 04:56:49;;;;;;;1.88;0.75;;;18.70;83.30;;;;;;5059262;28;20072;-75
2022/06/25 04:59:18;;;;;;;2.72;0.65;;;18.70;83.10;;;;;;5036429;28;20041;-76
2022/06/25 05:01:52;;;;;;;2.25;0.80;;;18.80;83.00;;;;;;5054660;28;20045;-76
2022/06/25 05:04:28;;;;;;;1.30;0.70;;;18.90;82.80;;;;;;5065520;28;20370;-76
2022/06/25 05:06:55;;;;;;;2.13;0.70;;;19.00;82.60;;;;;;5038181;28;20079;-75
2022/06/25 05:09:22;;;;;;;0.93;0.65;;;19.20;82.50;;;;;;5029823;28;20037;-76
2022/06/25 05:11:49;;;;;;;2.05;0.80;;;19.30;82.30;;;;;;5036627;28;20482;-76
2022/06/25 05:14:16;;;;;;;1.50;0.80;;;19.40;82.10;;;;;;5049805;28;20048;-76
2022/06/25 05:16:46;;;;;;;1.85;0.88;;;19.50;81.90;;;;;;5052759;28;20041;-76
2022/06/25 05:19:13;;;;;;;1.77;1.02;;;19.60;81.70;;;;;;5039294;28;20031;-76
2022/06/25 05:21:40;;;;;;;1.30;0.70;;;19.70;81.50;;;;;;5055943;28;20059;-76
2022/06/25 05:24:09;;;;;;;1.17;0.60;;;19.80;81.40;;;;;;5056181;28;20046;-76
2022/06/25 05:26:36;;;;;;;2.28;0.80;;;19.90;81.30;;;;;;5035947;28;20045;-76
2022/06/25 05:29:03;;;;;;;1.27;0.60;;;19.90;81.10;;;;;;5064217;28;20041;-83
2022/06/25 05:31:30;;;;;;;1.67;0.80;;;20.00;80.90;;;;;;5055391;28;20193;-81
2022/06/25 05:33:58;;;;;;;2.42;0.95;;;20.10;80.70;;;;;;5047363;28;20829;-82
2022/06/25 05:36:25;;;;;;;1.58;0.80;;;20.20;80.50;;;;;;5042003;28;20060;-82
2022/06/25 05:38:51;;;;;;;1.55;0.60;;;20.30;80.30;;;;;;5058263;28;20077;-81
2022/06/25 05:41:19;;;;;;;1.00;0.60;;;20.50;80.00;;;;;;5067358;28;20040;-81
2022/06/25 05:43:46;;;;;;;2.45;1.20;;;20.60;79.70;;;;;;5055028;28;20474;-75
2022/06/25 05:46:13;;;;;;;2.78;1.00;;;20.60;79.50;;;;;;5053999;28;20108;-75
2022/06/25 05:48:40;;;;;;;2.40;0.80;;;20.70;79.40;;;;;;5050719;28;20135;-75
2022/06/25 05:51:07;;;;;;;2.80;1.00;;;20.70;79.20;;;;;;5053310;28;20041;-75
2022/06/25 05:53:35;;;;;;;1.45;0.70;;;20.80;79.10;;;;;;5051871;28;20048;-75
2022/06/25 05:56:02;;;;;;;1.50;0.80;;;20.70;79.10;;;;;;5037964;28;20189;-74
2022/06/25 05:58:28;;;;;;;2.05;1.10;;;20.70;79.90;;;;;;5053315;28;20127;-75
2022/06/25 06:00:56;;;;;;;1.13;0.70;;;20.60;79.40;;;;;;5054081;28;20056;-75
2022/06/25 06:03:22;;;;;;;1.73;0.60;;;20.50;79.50;;;;;;5034907;28;20409;-75
2022/06/25 06:05:49;;;;;;;1.98;1.05;;;20.40;79.50;;;;;;5027400;28;20077;-75
2022/06/25 06:08:16;;;;;;;3.83;0.70;;;20.40;79.60;;;;;;5047489;28;20114;-82
2022/06/25 06:10:43;;;;;;;1.77;0.73;;;20.50;79.50;;;;;;5067327;28;20123;-82
2022/06/25 06:13:10;;;;;;;1.63;0.80;;;20.60;79.30;;;;;;5068854;28;20090;-82
2022/06/25 06:15:37;;;;;;;2.20;0.90;;;20.60;79.00;;;;;;5038870;28;20047;-81
2022/06/25 06:18:04;;;;;;;2.67;0.90;;;20.60;78.90;;;;;;5071237;28;20037;-82
2022/06/25 06:20:31;;;;;;;1.60;0.98;;;20.70;78.90;;;;;;5071632;28;20040;-81
2022/06/25 06:22:58;;;;;;;2.25;1.00;;;20.70;78.50;;;;;;5064991;28;20070;-82
2022/06/25 06:25:25;;;;;;;1.60;0.70;;;20.70;78.30;;;;;;5057930;28;20037;-83
2022/06/25 06:27:53;;;;;;;2.53;1.00;;;20.80;78.30;;;;;;5038885;28;20049;-82
2022/06/25 06:30:20;;;;;;;2.30;0.90;;;20.90;78.00;;;;;;5055127;28;20045;-84
2022/06/25 06:32:46;;;;;;;1.52;0.80;;;21.00;77.80;;;;;;5040052;28;20091;-85
2022/06/25 06:35:16;;;;;;;1.20;0.60;;;21.10;77.60;;;;;;5051671;28;20497;-82
2022/06/25 06:37:43;;;;;;;2.10;0.63;;;21.10;77.40;;;;;;5034475;28;20049;-84
2022/06/25 06:40:11;;;;;;;1.90;0.75;;;21.30;77.30;;;;;;5062858;28;20135;-82
2022/06/25 06:42:38;;;;;;;1.67;0.93;;;21.50;77.60;;;;;;5053380;28;20426;-82
2022/06/25 06:45:05;;;;;;;1.55;1.00;;;21.60;76.60;;;;;;5030754;28;20045;-81
2022/06/25 06:47:32;;;;;;;1.88;0.70;;;21.60;76.20;;;;;;5063578;28;20040;-82
2022/06/25 06:50:00;;;;;;;2.53;0.52;;;21.60;76.30;;;;;;5052026;28;20051;-82
2022/06/25 06:52:33;;;;;;;0.70;0.60;;;21.60;76.20;;;;;;5048051;28;20580;-82
2022/06/25 06:55:01;;;;;;;1.80;0.68;;;21.70;76.20;;;;;;5042592;28;20098;-82
2022/06/25 06:57:28;;;;;;;2.75;0.85;;;21.80;76.00;;;;;;5029661;28;20049;-83
2022/06/25 06:59:58;;;;;;;1.48;0.60;;;21.90;76.00;;;;;;5064695;28;20044;-82
2022/06/25 07:02:26;;;;;;;0.98;0.45;;;21.90;75.80;;;;;;5054646;28;20071;-82
2022/06/25 07:04:53;;;;;;;1.45;0.68;;;22.10;75.80;;;;;;5065145;28;20120;-82
2022/06/25 07:07:20;;;;;;;1.13;0.40;;;22.00;75.30;;;;;;5050078;28;20070;-82
2022/06/25 07:09:47;;;;;;;1.60;0.70;;;22.00;75.40;;;;;;5052974;28;20051;-81
2022/06/25 07:12:15;;;;;;;2.67;0.90;;;22.10;75.30;;;;;;5063077;28;20098;-82
2022/06/25 07:14:42;;;;;;;1.30;0.63;;;22.20;74.90;;;;;;5065744;28;20044;-82
2022/06/25 07:17:09;;;;;;;0.80;0.50;;;22.30;74.70;;;;;;5058958;28;20211;-80
2022/06/25 07:19:38;;;;;;;1.48;0.45;;;22.40;74.50;;;;;;5060924;28;20045;-79
2022/06/25 07:22:05;;;;;;;1.20;0.60;;;22.30;75.20;;;;;;5054206;28;20037;-82
2022/06/25 07:24:32;;;;;;;1.20;0.50;;;22.20;74.60;;;;;;5045297;28;20123;-81
2022/06/25 07:26:59;;;;;;;1.50;0.75;;;22.30;74.30;;;;;;5050874;28;20140;-79
2022/06/25 07:29:26;;;;;;;2.08;0.85;;;22.30;74.00;;;;;;5053860;28;20076;-80
2022/06/25 07:31:53;;;;;;;2.38;0.50;;;22.40;74.00;;;;;;5047849;28;20095;-80
2022/06/25 07:34:20;;;;;;;1.48;0.60;;;22.50;73.60;;;;;;5065263;28;20044;-80
2022/06/25 07:36:47;;;;;;;1.38;0.60;;;22.50;73.50;;;;;;5060659;28;20120;-79
2022/06/25 07:39:14;;;;;;;0.98;0.60;;;22.50;73.40;;;;;;5045260;28;20190;-81
2022/06/25 07:41:41;;;;;;;1.77;0.50;;;22.60;73.50;;;;;;5066601;28;20068;-82
2022/06/25 07:44:08;;;;;;;1.75;0.45;;;22.90;73.20;;;;;;5044167;28;20408;-82
2022/06/25 07:46:37;;;;;;;1.20;0.50;;;23.20;72.80;;;;;;5067522;28;20552;-82
2022/06/25 07:49:04;;;;;;;0.80;0.40;;;23.40;72.60;;;;;;5040686;28;20451;-81
2022/06/25 07:54:16;;;;;;;2.38;0.45;;;23.90;71.70;;;;;;5053614;28;20467;-82
2022/06/25 07:56:43;;;;;;;1.23;0.60;;;23.90;71.50;;;;;;5037884;28;20564;-82
2022/06/25 07:59:10;;;;;;;0.77;0.50;;;23.90;71.40;;;;;;5045853;28;20578;-82
2022/06/25 08:01:39;;;;;;;1.15;0.40;;;23.90;71.50;;;;;;5059881;28;20041;-85
2022/06/25 08:04:07;;;;;;;0.85;0.40;;;23.90;71.40;;;;;;5047851;28;20083;-87
2022/06/25 08:06:37;;;;;;;0.95;0.43;;;23.90;70.80;;;;;;5022136;28;20098;-84
2022/06/25 08:09:07;;;;;;;3.85;0.70;;;23.90;70.70;;;;;;5057415;28;20135;-85
2022/06/25 08:11:35;;;;;;;1.45;0.52;;;23.80;70.10;;;;;;5058289;28;20109;-86
2022/06/25 08:14:03;;;;;;;0.77;0.47;;;23.70;70.70;;;;;;5057559;28;20062;-86
2022/06/25 08:16:30;;;;;;;1.70;0.60;;;23.40;70.50;;;;;;5063264;28;20409;-85
2022/06/25 08:18:57;;;;;;;1.58;0.47;;;23.20;71.10;;;;;;5038129;28;20051;-85
2022/06/25 08:21:24;;;;;;;1.52;0.50;;;23.20;71.30;;;;;;5040434;28;20040;-85
2022/06/25 08:23:51;;;;;;;1.02;0.43;;;23.10;71.30;;;;;;5039397;28;20094;-85
2022/06/25 08:26:20;;;;;;;0.93;0.50;;;23.00;71.30;;;;;;5040429;28;20133;-82
2022/06/25 08:28:47;;;;;;;0.80;0.50;;;23.10;71.40;;;;;;5055640;28;20045;-83
2022/06/25 08:31:14;;;;;;;1.15;0.45;;;23.20;71.10;;;;;;5073343;28;20040;-83
2022/06/25 08:33:41;;;;;;;1.10;0.30;;;23.30;71.10;;;;;;5037109;28;20079;-84
2022/06/25 08:36:08;;;;;;;0.90;0.30;;;23.30;70.50;;;;;;5053883;28;20045;-85
2022/06/25 08:38:36;;;;;;;0.45;0.30;;;23.30;70.50;;;;;;5066993;28;20049;-85
2022/06/25 08:41:03;;;;;;;0.63;0.20;;;23.60;71.00;;;;;;5066303;28;20115;-85
2022/06/25 08:43:30;;;;;;;0.57;0.20;;;23.90;69.90;;;;;;5072374;28;20052;-85
2022/06/25 08:45:57;;;;;;;0.60;0.20;;;24.30;69.30;;;;;;5032013;28;20044;-85
2022/06/25 08:48:31;;;;;;;1.20;0.20;;;24.70;68.40;;;;;;5033269;28;20044;-85
2022/06/25 08:50:59;;;;;;;0.50;0.30;;;24.80;67.90;;;;;;5037066;28;20532;-85
2022/06/25 08:53:31;;;;;;;0.30;0.20;;;25.00;67.30;;;;;;5056395;28;20059;-85
2022/06/25 08:55:59;;;;;;;;;;;25.10;66.90;;;;;;5068464;28;20068;-84
2022/06/25 08:58:26;;;;;;;0.98;0.40;;;25.10;66.80;;;;;;5063085;28;19970;-85
2022/06/25 09:00:53;;;;;;;0.68;0.30;;;25.10;66.90;;;;;;5041297;28;20103;-85
2022/06/25 09:03:21;;;;;;;0.63;0.20;;;25.30;66.90;;;;;;5056438;28;20492;-85
2022/06/25 09:05:48;;;;;;;0.40;0.20;;;25.40;66.50;;;;;;5055868;28;20068;-85
2022/06/25 09:08:16;;;;;;;0.60;0.20;;;25.50;66.40;;;;;;5057014;28;20131;-86
2022/06/25 09:10:51;;;;;;;1.00;0.30;;;25.60;66.30;;;;;;5030106;28;20497;-85
2022/06/25 09:13:22;;;;;;;0.40;0.20;;;25.60;66.20;;;;;;5060422;28;20064;-85
2022/06/25 09:15:49;;;;;;;0.75;0.30;;;25.70;66.30;;;;;;5058384;28;20488;-86
2022/06/25 09:18:18;;;;;;;0.75;0.20;;;25.60;66.00;;;;;;5028822;28;20074;-84
2022/06/25 09:20:58;;;;;;;0.85;0.30;;;25.40;66.00;;;;;;5057087;28;20451;-85
2022/06/25 09:23:28;;;;;;;0.20;0.20;;;25.00;66.30;;;;;;5060714;28;20485;-84
2022/06/25 09:26:06;;;;;;;0.15;0.10;;;24.70;66.90;;;;;;5058283;28;20051;-85
2022/06/25 09:28:41;;;;;;;0.38;0.20;;;24.50;67.40;;;;;;5063452;28;20045;-84
2022/06/25 09:31:09;;;;;;;1.00;0.30;;;24.40;67.70;;;;;;5054593;28;20155;-84
2022/06/25 09:33:40;;;;;;;0.25;0.20;;;24.20;67.80;;;;;;5030268;28;20048;-84
2022/06/25 09:36:09;;;;;;;0.17;0.15;;;24.10;67.90;;;;;;5055747;28;20052;-84
2022/06/25 09:38:49;;;;;;;0.50;0.30;;;24.00;68.10;;;;;;5027332;28;20063;-83
2022/06/25 09:41:17;;;;;;;0.40;0.20;;;23.90;68.00;;;;;;5036952;28;20037;-85
2022/06/25 09:43:47;;;;;;;1.75;0.20;;;23.80;68.20;;;;;;5043154;28;20135;-84
2022/06/25 09:46:15;;;;;;;0.70;0.20;;;23.80;68.20;;;;;;5039952;28;20076;-84
2022/06/25 09:48:43;;;;;;;0.40;0.20;;;23.70;68.20;;;;;;5066195;28;20079;-84
2022/06/25 09:51:15;;;;;;;0.75;0.20;;;23.60;68.10;;;;;;5044815;28;20064;-83
2022/06/25 09:53:57;;;;;;;0.57;0.20;;;23.50;68.10;;;;;;5051857;28;20048;-86
2022/06/25 09:56:28;;;;;;;0.63;0.20;;;23.40;68.20;;;;;;5072324;28;20074;-87
2022/06/25 09:58:56;;;;;;;0.25;0.20;;;23.40;68.40;;;;;;5061734;28;20048;-81
2022/06/25 10:01:26;;;;;;;0.60;0.25;;;23.40;68.60;;;;;;5026834;28;20139;-81
2022/06/25 10:03:54;;;;;;;0.55;0.20;;;23.40;68.60;;;;;;5065782;28;20477;-81
2022/06/25 10:06:23;;;;;;;0.47;0.20;;;23.30;68.60;;;;;;5065545;28;20044;-81
2022/06/25 10:08:52;;;;;;;0.30;0.20;;;23.30;68.80;;;;;;5039689;28;20855;-81
2022/06/25 10:11:22;;;;;;;0.30;0.20;;;23.30;68.90;;;;;;5061597;28;20098;-81
2022/06/25 10:13:50;;;;;;;1.10;0.30;;;23.30;68.80;;;;;;5058981;28;20047;-82
2022/06/25 10:16:23;;;;;;;0.80;0.20;;;23.40;68.60;;;;;;5043571;28;20052;-81
2022/06/25 10:18:52;;;;;;;1.20;0.20;;;23.60;68.40;;;;;;5035122;28;20059;-82
2022/06/25 10:21:21;;;;;;;1.27;0.30;;;23.60;68.10;;;;;;5054833;28;20048;-82
2022/06/25 10:24:00;;;;;;;1.33;0.30;;;23.80;68.00;;;;;;5050618;28;20145;-82
2022/06/25 10:26:27;;;;;;;0.30;0.10;;;24.00;67.80;;;;;;5060033;28;20048;-82
2022/06/25 10:28:54;;;;;;;1.08;0.30;;;24.10;67.70;;;;;;5049045;28;20059;-82
2022/06/25 10:31:21;;;;;;;1.17;0.20;;;24.20;68.20;;;;;;5020623;28;20079;-81
2022/06/25 10:34:02;;;;;;;0.30;0.22;;;24.20;67.20;;;;;;5023570;28;20489;-81
2022/06/25 10:36:51;;;;;;;0.70;0.30;;;24.40;67.50;;;;;;5047396;28;20049;-81
2022/06/25 10:39:28;;;;;;;0.40;0.30;;;24.60;66.50;;;;;;5056839;28;20048;-81
2022/06/25 10:45:04;;;;;;;0.60;0.30;;;24.80;66.00;;;;;;5066047;28;20139;-81
2022/06/25 10:47:40;;;;;;;0.50;0.30;;;24.70;66.30;;;;;;5063684;28;20041;-81
2022/06/25 10:50:23;;;;;;;0.32;0.20;;;24.50;66.60;;;;;;5057474;28;20064;-81
2022/06/25 10:53:03;;;;;;;1.27;0.30;;;24.50;66.90;;;;;;5057940;28;20144;-81
2022/06/25 10:55:56;;;;;;;0.43;0.30;;;24.30;67.10;;;;;;5055541;28;20094;-81
2022/06/25 10:58:25;;;;;;;0.82;0.25;;;24.10;67.20;;;;;;5054789;28;20497;-81
2022/06/25 11:01:03;;;;;;;1.23;0.30;;;24.00;67.70;;;;;;5057240;28;20094;-81
2022/06/25 11:03:30;;;;;;;1.27;0.30;;;23.80;67.70;;;;;;5077879;28;20131;-84
2022/06/25 11:06:23;;;;;;;0.70;0.40;;;23.80;67.90;;;;;;5051499;28;20486;-83
2022/06/25 11:08:51;;;;;;;1.08;0.30;;;23.90;67.50;;;;;;5067584;28;20068;-84
2022/06/25 11:11:31;;;;;;;0.70;0.35;;;23.80;67.70;;;;;;5035721;28;20218;-83
2022/06/25 11:14:00;;;;;;;0.52;0.30;;;23.80;67.60;;;;;;5061403;28;20045;-84
2022/06/25 11:16:29;;;;;;;0.55;0.30;;;23.90;67.70;;;;;;5057544;28;20140;-83
2022/06/25 11:18:58;;;;;;;1.73;0.35;;;23.90;67.70;;;;;;5018606;28;20037;-84
2022/06/25 11:21:34;;;;;;;0.60;0.52;;;23.90;67.50;;;;;;5061276;28;20081;-84
2022/06/25 11:24:12;;;;;;;1.08;0.30;;;23.80;67.40;;;;;;5053401;28;20044;-83
2022/06/25 11:29:29;;;;;;;0.30;0.20;;;23.60;67.70;;;;;;5060610;28;20744;-82
2022/06/25 11:31:57;;;;;;;0.73;0.30;;;23.60;67.70;;;;;;5062701;28;20064;-82
2022/06/25 11:34:26;;;;;;;0.57;0.22;;;23.70;67.70;;;;;;5035271;28;20389;-81
2022/06/25 11:37:11;;;;;;;0.52;0.30;;;23.90;67.50;;;;;;5056502;28;20101;-81
2022/06/25 11:39:40;;;;;;;1.40;0.30;;;24.20;67.50;;;;;;5074505;28;20519;-82
2022/06/25 11:42:10;;;;;;;0.93;0.30;;;24.40;66.70;;;;;;5066751;28;20444;-82
2022/06/25 11:44:39;;;;;;;0.43;0.28;;;24.70;66.40;;;;;;5055968;28;20040;-82
2022/06/25 11:47:06;;;;;;;1.70;0.30;;;25.00;66.50;;;;;;5054343;28;20401;-82
2022/06/25 11:49:41;;;;;;;1.67;0.30;;;25.50;65.30;;;;;;5050605;28;20497;-82
2022/06/25 11:52:10;;;;;;;1.00;0.30;;;26.00;64.70;;;;;;5063736;28;20083;-82
2022/06/25 11:54:38;;;;;;;1.15;0.32;;;26.40;64.10;;;;;;5037968;28;20125;-83
2022/06/25 11:57:07;;;;;;;0.65;0.35;;;27.00;63.30;;;;;;5056710;28;20453;-82
2022/06/25 11:59:36;;;;;;;0.52;0.22;;;27.20;62.50;;;;;;5046361;28;20057;-82
2022/06/25 12:02:07;;;;;;;0.88;0.40;;;27.20;62.40;;;;;;5051805;28;20103;-82
2022/06/25 12:04:51;;;;;;;0.52;0.30;;;27.10;62.40;;;;;;5063438;28;20046;-82
2022/06/25 12:07:20;;;;;;;0.63;0.30;;;27.20;62.20;;;;;;5059037;28;20041;-82
2022/06/25 12:09:48;;;;;;;1.05;0.40;;;27.30;61.70;;;;;;5066771;28;20036;-82
2022/06/25 12:12:17;;;;;;;0.38;0.20;;;27.20;61.80;;;;;;5039608;28;20071;-82
2022/06/25 12:14:47;;;;;;;1.27;0.30;;;27.20;61.80;;;;;;5038779;28;20044;-82
2022/06/25 12:17:15;;;;;;;2.30;0.50;;;27.10;61.40;;;;;;5067912;28;20080;-79
2022/06/25 12:19:52;;;;;;;1.13;0.30;;;26.90;61.40;;;;;;5062596;28;20439;-79
2022/06/25 12:22:21;;;;;;;0.88;0.45;;;27.10;61.50;;;;;;5053880;28;20049;-80
2022/06/25 12:24:50;;;;;;;0.77;0.30;;;27.40;60.40;;;;;;5059012;28;20109;-79
2022/06/25 12:27:17;;;;;;;1.60;0.30;;;27.10;60.30;;;;;;5062546;28;20064;-79
2022/06/25 12:29:50;;;;;;;1.23;0.30;;;26.80;60.50;;;;;;5063196;28;20040;-78
2022/06/25 12:32:18;;;;;;;0.85;0.30;;;26.50;61.20;;;;;;5045250;28;20580;-77
2022/06/25 12:34:47;;;;;;;0.90;0.32;;;26.40;61.60;;;;;;5069066;28;20447;-79
2022/06/25 12:37:33;;;;;;;1.02;0.30;;;26.20;61.90;;;;;;5063961;28;20151;-78
2022/06/25 12:40:01;;;;;;;1.73;0.30;;;26.20;61.90;;;;;;5067787;28;20541;-78
2022/06/25 12:42:29;;;;;;;0.90;0.35;;;26.50;61.90;;;;;;5062495;28;20475;-78
2022/06/25 12:44:57;;;;;;;1.02;0.40;;;26.90;60.90;;;;;;5065081;28;20041;-77
2022/06/25 12:47:24;;;;;;;0.40;0.30;;;27.00;60.80;;;;;;5061163;28;20086;-71
2022/06/25 12:49:53;;;;;;;0.50;0.30;;;27.00;61.00;;;;;;5071313;28;20044;-71
2022/06/25 12:52:40;;;;;;;1.50;0.30;;;27.00;61.20;;;;;;5072651;28;20051;-72
2022/06/25 12:55:25;;;;;;;1.27;0.40;;;27.00;61.90;;;;;;5054524;28;20068;-71
2022/06/25 12:57:54;;;;;;;0.75;0.30;;;27.00;61.30;;;;;;5072688;28;20417;-73
2022/06/25 13:00:25;;;;;;;0.73;0.35;;;27.60;61.00;;;;;;5071106;28;20063;-73
2022/06/25 13:02:53;;;;;;;;;;;28.00;60.00;;;;;;5072990;28;20533;-73
2022/06/25 13:05:20;;;;;;;1.80;0.30;;;28.30;59.90;;;;;;5072419;28;19963;-73
2022/06/25 13:07:50;;;;;;;1.58;0.30;;;28.40;59.60;;;;;;5071057;28;20056;-73
2022/06/25 13:10:18;;;;;;;0.40;0.30;;;28.50;59.40;;;;;;5071042;28;20097;-73
2022/06/25 13:12:45;;;;;;;0.40;0.20;;;29.20;58.90;;;;;;5054369;28;20048;-73
2022/06/25 13:15:12;;;;;;;0.85;0.30;;;29.90;57.60;;;;;;5070997;28;20048;-73
2022/06/25 13:17:39;;;;;;;1.52;0.10;;;30.70;56.60;;;;;;5055576;28;20041;-73